Time;durP1;ratioP1;P1;durP2;ratioP2;P2;SDS_P1;SDS_P2;PMS_P1;PMS_P2;Temp;Humidity;BMP_temperature;BMP_pressure;BME280_temperature;BME280_humidity;BME280_pressure;Samples;Min_cycle;Max_cycle;Signal;HPM_P1;HPM_P2
2023/10/22 00:00:09;;;;;;;7.07;3.42;;;;;;;6.97;100.00;96360.97;5045792;28;20044;-63
2023/10/22 00:02:39;;;;;;;9.50;3.42;;;;;;;6.95;100.00;96369.28;5045252;28;20049;-63
2023/10/22 00:05:06;;;;;;;5.40;3.30;;;;;;;6.94;100.00;96377.63;5045258;28;20040;-63
2023/10/22 00:07:34;;;;;;;5.35;3.60;;;;;;;6.92;100.00;96388.63;5047121;28;20045;-63
2023/10/22 00:10:00;;;;;;;6.43;3.92;;;;;;;6.88;100.00;96387.50;5042463;28;20048;-63
2023/10/22 00:12:27;;;;;;;9.93;3.60;;;;;;;6.84;100.00;96378.31;5044712;28;20049;-63
2023/10/22 00:14:54;;;;;;;5.40;3.40;;;;;;;6.85;100.00;96391.50;5042748;28;20073;-63
2023/10/22 00:17:21;;;;;;;5.22;3.67;;;;;;;6.92;100.00;96404.78;5040516;28;20037;-63
2023/10/22 00:19:47;;;;;;;5.72;3.65;;;;;;;6.89;100.00;96402.56;5043677;28;20051;-63
2023/10/22 00:22:15;;;;;;;5.13;3.38;;;;;;;6.71;100.00;96376.84;5039340;28;20120;-63
2023/10/22 00:24:43;;;;;;;6.18;4.15;;;;;;;6.74;100.00;96414.81;5044092;28;20048;-63
2023/10/22 00:27:10;;;;;;;4.85;3.17;;;;;;;6.75;100.00;96413.72;5041418;28;20095;-63
2023/10/22 00:29:37;;;;;;;5.38;3.45;;;;;;;6.80;100.00;96423.75;5045330;28;20099;-64
2023/10/22 00:32:03;;;;;;;5.00;3.20;;;;;;;6.82;100.00;96432.38;5043821;28;20064;-64
2023/10/22 00:34:30;;;;;;;5.60;3.38;;;;;;;6.90;100.00;96448.06;5042188;28;20402;-63
2023/10/22 00:36:57;;;;;;;8.40;4.25;;;;;;;7.03;100.00;96456.84;5044606;28;20047;-63
2023/10/22 00:39:23;;;;;;;7.15;3.38;;;;;;;7.20;100.00;96459.47;5043302;28;20071;-64
2023/10/22 00:41:51;;;;;;;8.00;3.80;;;;;;;7.38;100.00;96444.81;5040000;28;20056;-64
2023/10/22 00:44:17;;;;;;;5.53;3.45;;;;;;;7.45;100.00;96438.44;5045591;28;20705;-64
2023/10/22 00:46:46;;;;;;;7.00;3.83;;;;;;;7.50;100.00;96430.38;5044243;28;20068;-64
2023/10/22 00:49:13;;;;;;;7.70;3.75;;;;;;;7.58;100.00;96427.22;5039399;28;20069;-64
2023/10/22 00:51:40;;;;;;;6.47;3.35;;;;;;;7.43;100.00;96390.19;5042549;28;20049;-64
2023/10/22 00:54:07;;;;;;;5.65;3.47;;;;;;;7.39;100.00;96407.94;5040820;28;20056;-64
2023/10/22 00:56:35;;;;;;;8.10;4.07;;;;;;;7.42;100.00;96426.28;5045664;28;20118;-64
2023/10/22 00:59:02;;;;;;;5.57;3.00;;;;;;;7.27;100.00;96418.88;5046167;28;20045;-64
2023/10/22 01:01:30;;;;;;;5.43;3.53;;;;;;;7.29;100.00;96430.19;5042757;28;20043;-67
2023/10/22 01:03:57;;;;;;;7.50;3.72;;;;;;;7.41;100.00;96451.59;5046938;28;20086;-64
2023/10/22 01:06:24;;;;;;;5.88;3.78;;;;;;;7.44;100.00;96455.66;5039968;28;20578;-63
2023/10/22 01:08:53;;;;;;;6.40;4.07;;;;;;;7.52;100.00;96457.91;5049927;28;20049;-64
2023/10/22 01:11:20;;;;;;;9.82;3.80;;;;;;;7.54;100.00;96450.38;5049024;28;20033;-63
2023/10/22 01:13:47;;;;;;;10.30;4.15;;;;;;;7.65;100.00;96445.88;5047641;28;20385;-64
2023/10/22 01:16:13;;;;;;;6.72;4.47;;;;;;;7.72;100.00;96445.66;5047592;28;20043;-64
2023/10/22 01:18:40;;;;;;;5.60;3.63;;;;;;;7.70;100.00;96423.56;5048192;28;20057;-64
2023/10/22 01:21:07;;;;;;;5.90;3.40;;;;;;;7.65;100.00;96408.97;5048215;28;20041;-64
2023/10/22 01:23:38;;;;;;;6.90;3.28;;;;;;;7.46;100.00;96391.56;5063562;28;20048;-63
2023/10/22 01:26:06;;;;;;;4.33;3.00;;;;;;;7.48;100.00;96400.22;5043910;28;20393;-64
2023/10/22 01:28:35;;;;;;;4.57;2.67;;;;;;;7.40;100.00;96390.69;5048090;28;20048;-65
2023/10/22 01:31:04;;;;;;;5.93;3.33;;;;;;;7.21;100.00;96377.63;5046016;28;20169;-64
2023/10/22 01:33:31;;;;;;;7.45;3.35;;;;;;;7.20;100.00;96383.25;5048623;28;20129;-63
2023/10/22 01:35:59;;;;;;;5.72;3.42;;;;;;;7.08;100.00;96399.56;5047749;28;20131;-64
2023/10/22 01:38:25;;;;;;;5.75;3.08;;;;;;;7.06;100.00;96412.44;5047954;28;20080;-64
2023/10/22 01:40:52;;;;;;;5.97;3.25;;;;;;;7.07;100.00;96411.41;5045163;28;20041;-64
2023/10/22 01:43:18;;;;;;;7.35;3.67;;;;;;;7.02;100.00;96404.91;5047886;28;20068;-64
2023/10/22 01:45:45;;;;;;;9.45;3.08;;;;;;;7.08;100.00;96408.44;5046583;28;20041;-63
2023/10/22 01:48:11;;;;;;;5.30;3.00;;;;;;;7.10;100.00;96410.88;5041413;28;20041;-64
2023/10/22 01:50:38;;;;;;;6.53;3.10;;;;;;;7.16;100.00;96417.97;5043800;28;20052;-63
2023/10/22 01:53:05;;;;;;;4.70;2.80;;;;;;;7.06;100.00;96399.00;5007073;28;20059;-64
2023/10/22 01:55:33;;;;;;;5.78;3.15;;;;;;;7.19;100.00;96427.41;5009417;28;20074;-64
2023/10/22 01:57:59;;;;;;;5.10;3.22;;;;;;;7.03;100.00;96397.63;5034406;28;20033;-64
2023/10/22 02:00:27;;;;;;;5.00;2.65;;;;;;;7.01;100.00;96407.84;5032842;28;20044;-63
2023/10/22 02:02:53;;;;;;;6.88;3.50;;;;;;;7.06;100.00;96424.03;5044083;28;20499;-64
2023/10/22 02:05:20;;;;;;;5.70;3.30;;;;;;;6.96;100.00;96403.19;5041802;28;20299;-63
2023/10/22 02:07:47;;;;;;;6.40;3.85;;;;;;;6.93;100.00;96411.78;5045211;28;20645;-64
2023/10/22 02:10:13;;;;;;;6.47;3.30;;;;;;;7.00;100.00;96419.66;5041926;28;20053;-64
2023/10/22 02:12:40;;;;;;;5.93;3.30;;;;;;;6.95;100.00;96425.81;5044061;28;20060;-64
2023/10/22 02:15:07;;;;;;;4.78;2.90;;;;;;;7.08;100.00;96437.25;5048333;28;21606;-64
2023/10/22 02:17:34;;;;;;;6.18;3.67;;;;;;;7.13;100.00;96437.31;5047364;28;20059;-64
2023/10/22 02:20:01;;;;;;;6.07;3.15;;;;;;;7.16;100.00;96437.59;5046903;28;20047;-64
2023/10/22 02:22:27;;;;;;;5.97;2.95;;;;;;;7.20;100.00;96437.09;5042709;28;20045;-64
2023/10/22 02:24:54;;;;;;;6.60;3.20;;;;;;;7.28;100.00;96452.81;5042152;28;20044;-64
2023/10/22 02:27:20;;;;;;;4.50;2.75;;;;;;;7.32;100.00;96447.72;5050097;28;20120;-64
2023/10/22 02:29:47;;;;;;;6.80;3.10;;;;;;;7.20;100.00;96426.34;5045952;28;20059;-64
2023/10/22 02:32:14;;;;;;;3.75;2.47;;;;;;;7.24;100.00;96430.13;5040089;28;20078;-64
2023/10/22 02:34:40;;;;;;;7.10;2.70;;;;;;;7.11;100.00;96416.00;5045252;28;20132;-64
2023/10/22 02:37:07;;;;;;;7.15;3.00;;;;;;;6.93;100.00;96417.16;5043883;28;20037;-63
2023/10/22 02:39:33;;;;;;;3.63;2.30;;;;;;;6.83;100.00;96412.50;5035037;28;20543;-64
2023/10/22 02:42:00;;;;;;;4.70;2.63;;;;;;;6.87;100.00;96424.38;5045445;28;20029;-64
2023/10/22 02:44:26;;;;;;;5.60;2.72;;;;;;;6.99;100.00;96431.50;5036215;28;20045;-64
2023/10/22 02:46:53;;;;;;;4.20;2.58;;;;;;;7.06;100.00;96442.88;5048134;28;20044;-64
2023/10/22 02:49:21;;;;;;;4.53;2.42;;;;;;;7.12;100.00;96455.31;5049047;28;20049;-64
2023/10/22 02:51:48;;;;;;;3.78;2.25;;;;;;;7.17;100.00;96435.72;5041455;28;20136;-64
2023/10/22 02:54:15;;;;;;;3.35;2.20;;;;;;;6.97;100.00;96415.59;5046701;28;20075;-64
2023/10/22 02:56:42;;;;;;;5.18;3.17;;;;;;;7.09;100.00;96434.31;5046265;28;20055;-64
2023/10/22 02:59:09;;;;;;;6.10;2.60;;;;;;;7.11;100.00;96437.53;5043277;28;20121;-64
2023/10/22 03:01:36;;;;;;;5.05;2.30;;;;;;;7.14;100.00;96438.91;5039581;28;20053;-64
2023/10/22 03:04:03;;;;;;;3.40;2.13;;;;;;;7.16;100.00;96442.97;5040614;28;20098;-64
2023/10/22 03:06:30;;;;;;;3.75;2.30;;;;;;;7.14;100.00;96447.00;5035242;28;20049;-64
2023/10/22 03:08:56;;;;;;;3.75;2.03;;;;;;;7.11;100.00;96448.31;5044848;28;20049;-64
2023/10/22 03:11:23;;;;;;;4.80;2.22;;;;;;;7.01;100.00;96442.84;5044450;28;20044;-64
2023/10/22 03:13:50;;;;;;;4.00;1.90;;;;;;;6.98;100.00;96443.31;5059284;28;20099;-64
2023/10/22 03:16:17;;;;;;;3.70;1.90;;;;;;;6.94;100.00;96452.97;5060167;28;20045;-64
2023/10/22 03:18:46;;;;;;;6.60;2.47;;;;;;;7.08;100.00;96470.34;5038576;28;20118;-64
2023/10/22 03:21:24;;;;;;;6.00;2.15;;;;;;;7.14;100.00;96463.97;5043412;28;20508;-64
2023/10/22 03:23:50;;;;;;;3.03;1.73;;;;;;;7.09;100.00;96466.63;5044166;28;20095;-63
2023/10/22 03:26:18;;;;;;;4.25;2.05;;;;;;;6.95;100.00;96457.28;5040188;28;20496;-64
2023/10/22 03:28:46;;;;;;;3.70;1.75;;;;;;;6.88;100.00;96458.28;5045053;28;20415;-63
2023/10/22 03:31:13;;;;;;;3.78;1.80;;;;;;;6.87;100.00;96469.31;5037530;28;20098;-64
2023/10/22 03:33:40;;;;;;;3.25;1.70;;;;;;;6.84;100.00;96462.53;5038716;28;20069;-64
2023/10/22 03:36:09;;;;;;;3.25;1.80;;;;;;;6.60;100.00;96467.34;5041694;28;20180;-64
2023/10/22 03:38:36;;;;;;;3.70;1.80;;;;;;;6.47;100.00;96466.66;5044618;28;20052;-64
2023/10/22 03:41:04;;;;;;;3.42;1.60;;;;;;;6.26;100.00;96465.53;5059848;28;20048;-64
2023/10/22 03:43:32;;;;;;;2.13;1.38;;;;;;;6.36;100.00;96475.63;5038925;28;20148;-63
2023/10/22 03:45:59;;;;;;;4.53;1.80;;;;;;;6.30;100.00;96477.41;5031200;28;20033;-63
2023/10/22 03:48:27;;;;;;;3.53;1.63;;;;;;;6.37;100.00;96490.69;5044612;28;20044;-63
2023/10/22 03:50:55;;;;;;;4.78;1.77;;;;;;;6.35;100.00;96485.56;5042863;28;20072;-64
2023/10/22 03:53:22;;;;;;;4.80;2.00;;;;;;;6.36;100.00;96478.31;5038746;28;20131;-64
2023/10/22 03:55:49;;;;;;;2.50;1.50;;;;;;;6.35;100.00;96479.38;5045959;28;20045;-64
2023/10/22 03:58:16;;;;;;;2.65;1.50;;;;;;;6.14;100.00;96472.88;5041119;28;20570;-64
2023/10/22 04:00:42;;;;;;;5.75;1.40;;;;;;;6.14;100.00;96489.81;5041321;28;20036;-64
2023/10/22 04:03:09;;;;;;;2.45;1.38;;;;;;;6.06;100.00;96504.50;5038016;28;20055;-64
2023/10/22 04:05:36;;;;;;;5.00;1.60;;;;;;;6.22;100.00;96510.09;5038982;28;20095;-64
2023/10/22 04:08:03;;;;;;;2.92;1.42;;;;;;;6.06;100.00;96496.44;5043329;28;20037;-64
2023/10/22 04:10:29;;;;;;;4.30;1.50;;;;;;;6.23;100.00;96509.06;5049076;28;20223;-64
2023/10/22 04:12:56;;;;;;;2.85;1.60;;;;;;;6.54;100.00;96498.75;5034330;28;20040;-64
2023/10/22 04:15:22;;;;;;;3.60;1.20;;;;;;;6.62;100.00;96495.63;5036572;28;20036;-64
2023/10/22 04:17:49;;;;;;;4.72;1.73;;;;;;;6.61;100.00;96488.63;5045253;28;20060;-64
2023/10/22 04:20:16;;;;;;;2.75;1.30;;;;;;;6.67;100.00;96489.50;5031533;28;20878;-63
2023/10/22 04:22:43;;;;;;;3.30;1.15;;;;;;;6.72;100.00;96496.81;5043863;28;20033;-64
2023/10/22 04:25:13;;;;;;;2.50;1.38;;;;;;;6.85;100.00;96490.25;5044775;28;20485;-64
2023/10/22 04:27:40;;;;;;;3.83;1.45;;;;;;;6.97;100.00;96488.25;5043407;28;20136;-64
2023/10/22 04:30:07;;;;;;;2.72;1.15;;;;;;;6.89;100.00;96484.13;5044153;28;20124;-64
2023/10/22 04:32:34;;;;;;;2.45;1.20;;;;;;;6.98;100.00;96486.38;5036983;28;20049;-64
2023/10/22 04:35:01;;;;;;;3.95;1.45;;;;;;;7.07;100.00;96489.47;5043253;28;20519;-64
2023/10/22 04:37:28;;;;;;;3.22;1.60;;;;;;;7.18;100.00;96493.88;5046629;28;20041;-64
2023/10/22 04:39:57;;;;;;;4.57;1.23;;;;;;;7.20;100.00;96499.03;5038079;28;20056;-64
2023/10/22 04:42:27;;;;;;;3.08;1.30;;;;;;;7.18;100.00;96499.28;5049412;28;20033;-64
2023/10/22 04:44:54;;;;;;;2.75;1.40;;;;;;;7.13;100.00;96500.03;5051316;28;21436;-64
2023/10/22 04:47:21;;;;;;;3.90;1.20;;;;;;;7.11;100.00;96502.16;5053738;28;20451;-64
2023/10/22 04:49:50;;;;;;;4.53;1.13;;;;;;;7.13;100.00;96501.91;5051187;28;20173;-63
2023/10/22 04:52:38;;;;;;;3.20;1.30;;;;;;;7.12;100.00;96508.38;5049639;28;20041;-64
2023/10/22 04:55:05;;;;;;;3.38;1.20;;;;;;;7.11;100.00;96507.53;5051597;28;20048;-64
2023/10/22 04:57:31;;;;;;;1.83;1.10;;;;;;;7.05;100.00;96502.34;5054330;28;20055;-64
2023/10/22 04:59:58;;;;;;;3.05;1.20;;;;;;;7.02;100.00;96511.75;5048104;28;20045;-63
2023/10/22 05:02:24;;;;;;;2.15;0.95;;;;;;;6.92;100.00;96511.63;5049108;28;20118;-64
2023/10/22 05:04:52;;;;;;;1.75;1.08;;;;;;;6.62;100.00;96514.47;5046635;28;20591;-64
2023/10/22 05:07:19;;;;;;;3.78;1.00;;;;;;;6.42;100.00;96519.53;5047376;28;20902;-64
2023/10/22 05:09:45;;;;;;;1.92;0.73;;;;;;;6.35;100.00;96530.47;5044054;28;20049;-64
2023/10/22 05:12:12;;;;;;;5.65;1.30;;;;;;;6.28;100.00;96529.81;5049365;28;20119;-63
2023/10/22 05:14:39;;;;;;;1.42;0.70;;;;;;;6.24;100.00;96535.66;5049697;28;20692;-64
2023/10/22 05:17:06;;;;;;;3.25;1.05;;;;;;;6.22;100.00;96536.97;5046318;28;20107;-64
2023/10/22 05:19:36;;;;;;;6.30;1.52;;;;;;;5.96;100.00;96520.41;5039233;28;20106;-63
2023/10/22 05:22:05;;;;;;;3.30;1.15;;;;;;;5.92;100.00;96532.69;5050784;28;20638;-65
2023/10/22 05:24:32;;;;;;;1.67;0.80;;;;;;;5.91;100.00;96531.91;5050745;28;20048;-64
2023/10/22 05:26:58;;;;;;;2.50;1.05;;;;;;;5.97;100.00;96547.03;5048350;28;20041;-64
2023/10/22 05:29:25;;;;;;;3.17;0.90;;;;;;;6.01;100.00;96549.25;5040232;28;20037;-64
2023/10/22 05:31:52;;;;;;;3.40;1.00;;;;;;;5.87;100.00;96541.50;5029726;28;20049;-65
2023/10/22 05:34:18;;;;;;;3.55;0.90;;;;;;;5.90;100.00;96548.25;5021827;28;20040;-64
2023/10/22 05:36:45;;;;;;;2.53;1.23;;;;;;;5.78;100.00;96543.75;5050677;28;20060;-64
2023/10/22 05:39:11;;;;;;;4.22;0.90;;;;;;;5.77;100.00;96544.81;5043853;28;20119;-64
2023/10/22 05:41:38;;;;;;;3.85;0.85;;;;;;;5.91;100.00;96549.88;5051518;28;20492;-64
2023/10/22 05:44:05;;;;;;;4.13;0.95;;;;;;;6.05;100.00;96561.97;5047581;28;20119;-64
2023/10/22 05:46:33;;;;;;;2.95;0.90;;;;;;;6.19;100.00;96562.47;5047086;28;20427;-64
2023/10/22 05:49:00;;;;;;;2.25;1.05;;;;;;;6.27;100.00;96563.97;5052441;28;20526;-64
2023/10/22 05:51:27;;;;;;;2.38;0.90;;;;;;;6.28;100.00;96567.44;5043995;28;20049;-64
2023/10/22 05:53:53;;;;;;;5.07;1.10;;;;;;;6.26;100.00;96556.94;5044509;28;20535;-65
2023/10/22 05:56:20;;;;;;;6.93;0.95;;;;;;;6.29;100.00;96561.84;5045030;28;20059;-64
2023/10/22 05:58:47;;;;;;;2.95;0.70;;;;;;;6.23;100.00;96562.81;5043768;28;20049;-64
2023/10/22 06:01:13;;;;;;;1.25;0.85;;;;;;;6.22;100.00;96563.84;5050436;28;20512;-64
2023/10/22 06:03:40;;;;;;;3.17;0.93;;;;;;;6.07;100.00;96565.25;5045182;28;20045;-65
2023/10/22 06:06:10;;;;;;;5.38;0.98;;;;;;;5.99;100.00;96569.13;5037918;28;20563;-65
2023/10/22 06:08:37;;;;;;;2.17;0.70;;;;;;;5.78;100.00;96569.81;5043212;28;20049;-65
2023/10/22 06:11:04;;;;;;;2.47;1.15;;;;;;;5.70;100.00;96579.06;5047774;28;20254;-64
2023/10/22 06:13:32;;;;;;;2.45;0.80;;;;;;;5.66;100.00;96583.28;5046956;28;20516;-64
2023/10/22 06:15:58;;;;;;;4.03;0.93;;;;;;;5.66;100.00;96596.72;5046489;28;20049;-64
2023/10/22 06:18:25;;;;;;;2.22;0.80;;;;;;;5.65;100.00;96598.59;5044917;28;20090;-64
2023/10/22 06:20:51;;;;;;;1.67;0.70;;;;;;;5.58;100.00;96603.28;5038564;28;20661;-64
2023/10/22 06:23:20;;;;;;;2.05;0.95;;;;;;;5.63;100.00;96618.69;5043553;28;20044;-64
2023/10/22 06:25:47;;;;;;;3.60;1.10;;;;;;;5.69;100.00;96610.50;5041009;28;20041;-64
2023/10/22 06:28:14;;;;;;;2.55;1.10;;;;;;;5.69;100.00;96606.97;5044415;28;20041;-64
2023/10/22 06:30:40;;;;;;;2.65;1.00;;;;;;;5.65;100.00;96611.19;5042127;28;20095;-65
2023/10/22 06:33:07;;;;;;;2.53;0.73;;;;;;;5.55;100.00;96611.81;5042139;28;20116;-64
2023/10/22 06:35:34;;;;;;;3.92;1.05;;;;;;;5.73;100.00;96613.50;5045681;28;20492;-64
2023/10/22 06:38:00;;;;;;;5.78;1.15;;;;;;;5.88;100.00;96614.84;5046311;28;20048;-65
2023/10/22 06:40:27;;;;;;;3.33;1.02;;;;;;;6.08;100.00;96628.69;5047231;28;20045;-65
2023/10/22 06:42:53;;;;;;;4.28;1.05;;;;;;;6.38;100.00;96611.44;5044638;28;20048;-65
2023/10/22 06:45:20;;;;;;;7.40;1.52;;;;;;;6.61;100.00;96609.69;5043965;28;20044;-65
2023/10/22 06:47:46;;;;;;;3.00;1.25;;;;;;;6.79;100.00;96607.78;5045087;28;20098;-65
2023/10/22 06:50:14;;;;;;;5.97;1.02;;;;;;;6.93;100.00;96610.13;5046014;28;20049;-65
2023/10/22 06:52:42;;;;;;;2.88;0.80;;;;;;;7.13;100.00;96612.28;5046386;28;20043;-65
2023/10/22 06:55:09;;;;;;;4.53;0.82;;;;;;;7.33;100.00;96614.44;5040575;28;20037;-64
2023/10/22 06:57:36;;;;;;;5.68;1.38;;;;;;;7.55;100.00;96617.13;5050697;28;20049;-64
2023/10/22 07:00:03;;;;;;;3.50;1.02;;;;;;;7.69;100.00;96616.75;5041470;28;20040;-64
2023/10/22 07:02:32;;;;;;;2.00;0.90;;;;;;;7.86;100.00;96614.00;5042967;28;20045;-64
2023/10/22 07:04:59;;;;;;;4.10;1.00;;;;;;;8.02;100.00;96614.13;5043825;28;20123;-64
2023/10/22 07:07:26;;;;;;;3.60;1.30;;;;;;;8.16;100.00;96623.47;5044142;28;20132;-64
2023/10/22 07:09:52;;;;;;;1.77;0.55;;;;;;;8.27;100.00;96627.06;5047606;28;20102;-64
2023/10/22 07:12:20;;;;;;;4.57;0.85;;;;;;;8.54;100.00;96620.03;5048836;28;20040;-64
2023/10/22 07:14:47;;;;;;;3.75;0.90;;;;;;;8.69;100.00;96630.13;5035436;28;20045;-64
2023/10/22 07:17:13;;;;;;;4.13;0.85;;;;;;;8.78;100.00;96628.59;5043271;28;20059;-64
2023/10/22 07:19:40;;;;;;;4.13;0.75;;;;;;;8.89;100.00;96628.66;5044828;28;20255;-64
2023/10/22 07:22:06;;;;;;;2.25;0.70;;;;;;;8.98;100.00;96629.78;5036360;28;20045;-64
2023/10/22 07:24:34;;;;;;;5.20;0.88;;;;;;;9.02;100.00;96635.47;5043802;28;20044;-64
2023/10/22 07:27:01;;;;;;;7.32;1.88;;;;;;;9.13;100.00;96636.38;5040574;28;20036;-64
2023/10/22 07:29:27;;;;;;;3.92;0.88;;;;;;;9.13;100.00;96634.47;5046932;28;20047;-64
2023/10/22 07:31:54;;;;;;;3.70;0.90;;;;;;;9.20;100.00;96640.47;5044282;28;20049;-65
2023/10/22 07:34:21;;;;;;;1.75;0.57;;;;;;;9.30;100.00;96638.91;5037687;28;20045;-64
2023/10/22 07:36:47;;;;;;;5.38;1.02;;;;;;;9.42;100.00;96634.09;5042263;28;20048;-64
2023/10/22 07:39:14;;;;;;;1.67;0.52;;;;;;;9.50;100.00;96649.81;5041501;28;20053;-65
2023/10/22 07:41:40;;;;;;;3.30;0.55;;;;;;;9.56;100.00;96655.25;5043502;28;20051;-65
2023/10/22 07:44:07;;;;;;;4.28;0.70;;;;;;;9.60;100.00;96648.25;5041137;28;20033;-64
2023/10/22 07:46:34;;;;;;;5.03;0.88;;;;;;;9.66;100.00;96655.28;5040139;28;20052;-64
2023/10/22 07:49:00;;;;;;;3.42;0.65;;;;;;;9.69;100.00;96653.97;5042578;28;20045;-64
2023/10/22 07:51:27;;;;;;;2.42;0.80;;;;;;;9.76;100.00;96662.63;5036017;28;20144;-64
2023/10/22 07:53:54;;;;;;;4.28;0.85;;;;;;;9.83;100.00;96660.50;5039736;28;20033;-64
2023/10/22 07:56:21;;;;;;;5.45;1.00;;;;;;;9.90;100.00;96665.66;5037444;28;20049;-65
2023/10/22 07:58:47;;;;;;;2.95;0.70;;;;;;;10.00;100.00;96664.88;5038252;28;20056;-65
2023/10/22 08:01:14;;;;;;;2.55;0.80;;;;;;;10.10;100.00;96670.31;5038559;28;20047;-64
2023/10/22 08:03:41;;;;;;;4.25;0.50;;;;;;;10.30;100.00;96671.47;5040491;28;20463;-65
2023/10/22 08:06:07;;;;;;;4.28;0.70;;;;;;;10.39;100.00;96682.56;5039268;28;20048;-64
2023/10/22 08:08:34;;;;;;;4.25;0.50;;;;;;;10.52;100.00;96678.56;5040110;28;20115;-64
2023/10/22 08:11:03;;;;;;;3.40;0.70;;;;;;;10.65;100.00;96675.31;5044398;28;20036;-65
2023/10/22 08:13:30;;;;;;;4.78;0.80;;;;;;;10.85;100.00;96681.00;5040120;28;20108;-65
2023/10/22 08:15:56;;;;;;;2.05;0.52;;;;;;;10.96;99.46;96674.53;5037846;28;20053;-65
2023/10/22 08:18:24;;;;;;;4.65;1.05;;;;;;;11.08;97.39;96682.38;5043001;28;20072;-65
2023/10/22 08:20:51;;;;;;;5.00;0.80;;;;;;;11.19;98.56;96680.44;5040814;28;20458;-65
2023/10/22 08:23:18;;;;;;;5.32;0.80;;;;;;;11.20;97.50;96687.50;5033679;28;20037;-64
2023/10/22 08:25:52;;;;;;;2.35;0.57;;;;;;;11.27;96.47;96674.47;5044501;28;20036;-64
2023/10/22 08:28:19;;;;;;;4.82;0.80;;;;;;;11.35;95.98;96673.09;5040041;28;20111;-65
2023/10/22 08:30:46;;;;;;;3.47;0.63;;;;;;;11.43;95.30;96685.31;5044650;28;20124;-65
2023/10/22 08:33:14;;;;;;;4.43;0.93;;;;;;;11.50;95.23;96680.38;5045647;28;20077;-64
2023/10/22 08:35:40;;;;;;;6.57;0.90;;;;;;;11.58;95.38;96693.38;5042926;28;20049;-64
2023/10/22 08:38:07;;;;;;;6.00;0.60;;;;;;;11.66;95.63;96696.63;5046527;28;20036;-64
2023/10/22 08:40:37;;;;;;;4.03;1.10;;;;;;;11.70;93.25;96703.94;5039845;28;20511;-65
2023/10/22 08:43:27;;;;;;;2.63;0.68;;;;;;;11.75;92.27;96707.72;5041356;28;20037;-64
2023/10/22 08:45:55;;;;;;;5.15;0.88;;;;;;;11.87;93.22;96702.00;5045260;28;20045;-65
2023/10/22 08:48:24;;;;;;;3.25;0.60;;;;;;;11.93;92.62;96719.84;5038423;28;20523;-64
2023/10/22 08:50:52;;;;;;;4.03;0.47;;;;;;;12.03;89.77;96710.88;5043733;28;20076;-65
2023/10/22 08:53:18;;;;;;;5.15;0.93;;;;;;;12.03;89.07;96711.69;5042320;28;20060;-64
2023/10/22 08:55:47;;;;;;;4.72;0.60;;;;;;;12.19;90.67;96723.31;5041512;28;20067;-65
2023/10/22 08:58:18;;;;;;;3.38;0.88;;;;;;;12.29;88.49;96717.03;5041505;28;20041;-64
2023/10/22 09:00:49;;;;;;;2.80;0.88;;;;;;;12.43;88.08;96717.25;5039403;28;20041;-64
2023/10/22 09:03:17;;;;;;;4.70;1.35;;;;;;;12.43;87.65;96709.09;5036743;28;20040;-64
2023/10/22 09:05:45;;;;;;;7.20;1.30;;;;;;;12.47;85.92;96712.88;5040497;28;20127;-64
2023/10/22 09:08:12;;;;;;;4.18;0.70;;;;;;;12.56;86.07;96713.06;5033765;28;20044;-64
2023/10/22 09:10:39;;;;;;;2.13;0.60;;;;;;;12.61;84.41;96712.25;5043099;28;20049;-65
2023/10/22 09:13:16;;;;;;;5.10;0.68;;;;;;;12.60;82.46;96718.75;5040525;28;20192;-64
2023/10/22 09:15:45;;;;;;;6.15;1.25;;;;;;;12.53;83.08;96716.34;5042412;28;20547;-64
2023/10/22 09:18:12;;;;;;;4.60;0.73;;;;;;;12.61;82.78;96717.69;5040052;28;20126;-64
2023/10/22 09:20:40;;;;;;;4.85;0.90;;;;;;;12.70;81.55;96720.59;5030715;28;20099;-65
2023/10/22 09:23:22;;;;;;;2.58;0.63;;;;;;;12.83;80.89;96719.16;5037829;28;20090;-64
2023/10/22 09:25:51;;;;;;;7.80;0.93;;;;;;;12.95;80.24;96719.59;5038424;28;20091;-64
2023/10/22 09:28:20;;;;;;;4.20;1.05;;;;;;;12.99;79.41;96725.28;5044399;28;20037;-64
2023/10/22 09:31:07;;;;;;;8.13;2.60;;;;;;;13.02;78.50;96716.56;5039792;28;20504;-65
2023/10/22 09:33:36;;;;;;;4.97;1.05;;;;;;;13.15;78.43;96720.53;5038721;28;20420;-64
2023/10/22 09:36:08;;;;;;;4.10;1.10;;;;;;;13.23;78.91;96722.63;5041363;28;20044;-65
2023/10/22 09:38:43;;;;;;;;;;;;;;;13.33;79.14;96721.72;5043675;28;20050;-64
2023/10/22 09:41:31;;;;;;;2.67;0.70;;;;;;;13.44;79.34;96717.00;5051739;28;19947;-65
2023/10/22 09:43:59;;;;;;;6.82;1.50;;;;;;;13.42;79.60;96724.66;5048534;28;20041;-65
2023/10/22 09:46:32;;;;;;;4.80;1.10;;;;;;;13.34;79.12;96736.94;5047240;28;20037;-65
2023/10/22 09:49:00;;;;;;;4.85;1.50;;;;;;;13.40;77.06;96732.28;5050016;28;20044;-65
2023/10/22 09:51:33;;;;;;;6.32;1.40;;;;;;;13.47;76.88;96727.31;5040272;28;20060;-65
2023/10/22 09:54:05;;;;;;;8.20;1.05;;;;;;;13.53;77.46;96739.78;5045214;28;20156;-65
2023/10/22 09:56:38;;;;;;;8.15;1.40;;;;;;;13.43;75.16;96736.31;5041184;28;20274;-65
2023/10/22 09:59:11;;;;;;;2.60;0.65;;;;;;;13.36;75.38;96728.50;5047810;28;20587;-64
2023/10/22 10:01:38;;;;;;;5.13;1.10;;;;;;;13.48;71.53;96736.31;5044650;28;20049;-64
2023/10/22 10:04:05;;;;;;;4.90;0.90;;;;;;;13.83;74.30;96737.06;5040382;28;20493;-65
2023/10/22 10:06:35;;;;;;;3.83;0.60;;;;;;;14.08;67.61;96746.00;5042958;28;20520;-65
2023/10/22 10:09:03;;;;;;;5.05;0.98;;;;;;;14.09;67.94;96746.84;5043365;28;20055;-64
2023/10/22 10:11:32;;;;;;;7.20;1.23;;;;;;;14.05;66.79;96741.97;5044219;28;20045;-65
2023/10/22 10:14:10;;;;;;;3.20;0.82;;;;;;;14.09;66.85;96742.22;5047245;28;20049;-65
2023/10/22 10:16:42;;;;;;;4.60;1.10;;;;;;;14.28;67.28;96746.88;5040005;28;20484;-65
2023/10/22 10:19:20;;;;;;;3.22;0.68;;;;;;;14.52;65.84;96741.38;5036532;28;20075;-65
2023/10/22 10:21:49;;;;;;;4.25;0.68;;;;;;;14.61;63.26;96749.72;5044620;28;20057;-64
2023/10/22 10:24:20;;;;;;;7.32;1.38;;;;;;;14.76;63.89;96750.59;5046583;28;20036;-65
2023/10/22 10:26:50;;;;;;;4.20;0.60;;;;;;;14.79;62.11;96750.06;5045119;28;20057;-65
2023/10/22 10:29:19;;;;;;;6.22;0.82;;;;;;;14.76;64.01;96747.88;5042823;28;20125;-65
2023/10/22 10:31:51;;;;;;;3.85;0.80;;;;;;;14.80;64.15;96754.38;5039961;28;20041;-65
2023/10/22 10:34:24;;;;;;;2.90;0.57;;;;;;;14.70;63.99;96749.84;5045210;28;20071;-64
2023/10/22 10:36:51;;;;;;;2.75;0.70;;;;;;;14.68;63.99;96760.25;5042985;28;20124;-64
2023/10/22 10:39:38;;;;;;;6.55;0.90;;;;;;;14.80;63.26;96759.84;5045012;28;21446;-64
2023/10/22 10:42:05;;;;;;;4.72;1.05;;;;;;;14.79;62.19;96760.94;5045187;28;20055;-65
2023/10/22 10:44:32;;;;;;;5.10;1.10;;;;;;;14.87;61.68;96762.19;5048907;28;20124;-65
2023/10/22 10:47:20;;;;;;;3.05;0.50;;;;;;;14.72;60.17;96758.56;5046829;28;20511;-65
2023/10/22 10:50:03;;;;;;;2.55;0.60;;;;;;;14.63;61.28;96760.34;5040768;28;20480;-65
2023/10/22 10:52:31;;;;;;;4.22;0.90;;;;;;;14.52;61.25;96767.84;5036819;28;20037;-65
2023/10/22 10:55:08;;;;;;;5.40;1.08;;;;;;;14.57;61.04;96760.38;5049852;28;20052;-65
2023/10/22 10:57:40;;;;;;;5.00;0.63;;;;;;;14.59;61.86;96762.03;5042355;28;20049;-65
2023/10/22 11:00:13;;;;;;;5.70;0.63;;;;;;;14.57;60.91;96756.84;5047142;28;20059;-64
2023/10/22 11:02:43;;;;;;;4.80;1.10;;;;;;;14.75;61.19;96755.25;5036125;28;20049;-65
2023/10/22 11:05:10;;;;;;;1.95;0.50;;;;;;;14.91;61.27;96752.31;5046587;28;20040;-63
2023/10/22 11:07:37;;;;;;;6.15;0.77;;;;;;;15.36;61.61;96754.63;5042183;28;20124;-65
2023/10/22 11:10:11;;;;;;;3.25;0.88;;;;;;;15.24;59.02;96767.91;5043509;28;20636;-65
2023/10/22 11:12:38;;;;;;;5.90;0.90;;;;;;;15.22;59.25;96760.00;5045231;28;20416;-65
2023/10/22 11:15:07;;;;;;;3.28;0.80;;;;;;;15.32;57.69;96769.94;5020529;28;20052;-62
2023/10/22 11:17:35;;;;;;;4.93;0.85;;;;;;;15.27;58.91;96754.50;5043982;28;20037;-62
2023/10/22 11:20:04;;;;;;;1.88;0.60;;;;;;;15.21;58.88;96759.22;5042858;28;20044;-62
2023/10/22 11:22:31;;;;;;;5.13;1.02;;;;;;;15.29;59.31;96749.53;5046733;28;20045;-62
2023/10/22 11:25:01;;;;;;;3.63;0.70;;;;;;;15.27;58.24;96748.22;5045022;28;20051;-65
2023/10/22 11:27:28;;;;;;;4.93;0.85;;;;;;;15.22;59.06;96754.56;5039191;28;20055;-64
2023/10/22 11:29:55;;;;;;;2.35;0.40;;;;;;;15.29;59.01;96746.03;5042338;28;20072;-63
2023/10/22 11:32:22;;;;;;;3.83;0.85;;;;;;;15.14;58.79;96747.09;5040468;28;20060;-63
2023/10/22 11:35:07;;;;;;;6.68;1.17;;;;;;;15.16;59.71;96745.69;5042699;28;20044;-64
2023/10/22 11:37:37;;;;;;;3.10;0.60;;;;;;;15.15;59.59;96746.75;5038838;28;20052;-61